sensor_id;sensor_type;location;lat;lon;timestamp;pressure;altitude;pressure_sealevel;temperature;humidity
66547;BME280;53400;50.364;14.874;2023-09-19T00:02:03;98038.28;;;16.74;100.00
66547;BME280;53400;50.364;14.874;2023-09-19T00:04:32;98034.88;;;16.69;100.00
66547;BME280;53400;50.364;14.874;2023-09-19T00:06:58;98039.16;;;16.56;100.00
66547;BME280;53400;50.364;14.874;2023-09-19T00:09:24;98048.66;;;16.54;100.00
66547;BME280;53400;50.364;14.874;2023-09-19T00:11:53;98056.19;;;16.57;100.00
66547;BME280;53400;50.364;14.874;2023-09-19T00:14:24;98050.44;;;16.44;100.00
66547;BME280;53400;50.364;14.874;2023-09-19T00:16:50;98051.78;;;16.28;100.00
66547;BME280;53400;50.364;14.874;2023-09-19T00:19:18;98050.88;;;16.19;100.00
66547;BME280;53400;50.364;14.874;2023-09-19T00:21:44;98043.47;;;16.24;100.00
66547;BME280;53400;50.364;14.874;2023-09-19T00:24:11;98056.19;;;16.24;100.00
66547;BME280;53400;50.364;14.874;2023-09-19T00:26:37;98056.19;;;16.24;100.00
66547;BME280;53400;50.364;14.874;2023-09-19T00:29:04;98039.25;;;16.37;100.00
66547;BME280;53400;50.364;14.874;2023-09-19T00:31:30;98048.66;;;16.54;100.00
66547;BME280;53400;50.364;14.874;2023-09-19T00:33:58;98051.13;;;16.36;100.00
66547;BME280;53400;50.364;14.874;2023-09-19T00:36:28;98042.28;;;16.17;100.00
66547;BME280;53400;50.364;14.874;2023-09-19T00:38:55;98049.44;;;16.08;100.00
66547;BME280;53400;50.364;14.874;2023-09-19T00:41:21;98057.00;;;16.24;100.00
66547;BME280;53400;50.364;14.874;2023-09-19T00:43:47;98063.72;;;16.27;100.00
66547;BME280;53400;50.364;14.874;2023-09-19T00:46:16;98062.41;;;16.24;100.00
66547;BME280;53400;50.364;14.874;2023-09-19T00:48:43;98066.34;;;16.32;100.00
66547;BME280;53400;50.364;14.874;2023-09-19T00:51:09;98065.63;;;16.26;100.00
66547;BME280;53400;50.364;14.874;2023-09-19T00:53:38;98070.63;;;16.33;100.00
66547;BME280;53400;50.364;14.874;2023-09-19T00:56:05;98065.81;;;16.30;100.00
66547;BME280;53400;50.364;14.874;2023-09-19T00:58:34;98070.16;;;16.45;100.00
66547;BME280;53400;50.364;14.874;2023-09-19T01:01:02;98059.47;;;16.07;100.00
66547;BME280;53400;50.364;14.874;2023-09-19T01:03:32;98061.19;;;16.17;100.00
66547;BME280;53400;50.364;14.874;2023-09-19T01:05:59;98065.78;;;15.97;100.00
66547;BME280;53400;50.364;14.874;2023-09-19T01:08:27;98064.63;;;16.03;100.00
66547;BME280;53400;50.364;14.874;2023-09-19T01:11:00;98043.94;;;16.32;100.00
66547;BME280;53400;50.364;14.874;2023-09-19T01:13:37;98046.38;;;16.14;100.00
66547;BME280;53400;50.364;14.874;2023-09-19T01:16:15;98042.66;;;16.10;100.00
66547;BME280;53400;50.364;14.874;2023-09-19T01:18:52;98052.06;;;15.94;100.00
66547;BME280;53400;50.364;14.874;2023-09-19T01:21:25;98053.81;;;16.22;100.00
66547;BME280;53400;50.364;14.874;2023-09-19T01:24:10;98059.88;;;16.47;100.00
66547;BME280;53400;50.364;14.874;2023-09-19T01:27:11;98049.44;;;16.08;100.00
66547;BME280;53400;50.364;14.874;2023-09-19T01:29:45;98052.09;;;16.26;100.00
66547;BME280;53400;50.364;14.874;2023-09-19T01:32:17;98056.66;;;16.12;100.00
66547;BME280;53400;50.364;14.874;2023-09-19T01:34:47;98046.53;;;16.04;100.00
66547;BME280;53400;50.364;14.874;2023-09-19T01:37:14;98047.72;;;15.98;100.00
66547;BME280;53400;50.364;14.874;2023-09-19T01:39:44;98043.50;;;15.92;100.00
66547;BME280;53400;50.364;14.874;2023-09-19T01:42:22;98047.84;;;15.88;100.00
66547;BME280;53400;50.364;14.874;2023-09-19T01:44:57;98042.03;;;15.80;100.00
66547;BME280;53400;50.364;14.874;2023-09-19T01:47:31;98047.31;;;15.67;100.00
66547;BME280;53400;50.364;14.874;2023-09-19T01:50:10;98048.97;;;15.68;100.00
66547;BME280;53400;50.364;14.874;2023-09-19T01:52:42;98047.13;;;15.82;100.00
66547;BME280;53400;50.364;14.874;2023-09-19T01:55:12;98040.09;;;15.62;100.00
66547;BME280;53400;50.364;14.874;2023-09-19T01:57:44;98047.63;;;15.46;100.00
66547;BME280;53400;50.364;14.874;2023-09-19T02:00:14;98045.88;;;15.55;100.00
66547;BME280;53400;50.364;14.874;2023-09-19T02:02:46;98046.22;;;15.49;100.00
66547;BME280;53400;50.364;14.874;2023-09-19T02:05:22;98058.69;;;15.45;100.00
66547;BME280;53400;50.364;14.874;2023-09-19T02:07:49;98061.44;;;15.82;100.00
66547;BME280;53400;50.364;14.874;2023-09-19T02:10:15;98059.09;;;15.76;100.00
66547;BME280;53400;50.364;14.874;2023-09-19T02:12:42;98060.13;;;15.99;100.00
66547;BME280;53400;50.364;14.874;2023-09-19T02:15:09;98052.88;;;15.94;100.00
66547;BME280;53400;50.364;14.874;2023-09-19T02:17:35;98051.56;;;15.73;100.00
66547;BME280;53400;50.364;14.874;2023-09-19T02:20:03;98052.16;;;15.70;100.00
66547;BME280;53400;50.364;14.874;2023-09-19T02:22:36;98053.84;;;15.85;100.00
66547;BME280;53400;50.364;14.874;2023-09-19T02:25:03;98051.81;;;15.76;100.00
66547;BME280;53400;50.364;14.874;2023-09-19T02:27:33;98044.94;;;15.84;100.00
66547;BME280;53400;50.364;14.874;2023-09-19T02:29:59;98050.94;;;15.81;100.00
66547;BME280;53400;50.364;14.874;2023-09-19T02:32:29;98049.78;;;15.68;100.00
66547;BME280;53400;50.364;14.874;2023-09-19T02:34:58;98043.03;;;15.66;100.00
66547;BME280;53400;50.364;14.874;2023-09-19T02:37:26;98032.81;;;15.63;100.00
66547;BME280;53400;50.364;14.874;2023-09-19T02:39:53;98040.47;;;15.55;100.00
66547;BME280;53400;50.364;14.874;2023-09-19T02:42:18;98043.09;;;15.60;100.00
66547;BME280;53400;50.364;14.874;2023-09-19T02:44:45;98041.13;;;15.85;100.00
66547;BME280;53400;50.364;14.874;2023-09-19T02:47:12;98041.44;;;15.83;100.00
66547;BME280;53400;50.364;14.874;2023-09-19T02:49:42;98041.06;;;15.90;100.00
66547;BME280;53400;50.364;14.874;2023-09-19T02:52:08;98043.41;;;15.78;100.00
66547;BME280;53400;50.364;14.874;2023-09-19T02:54:36;98050.22;;;15.51;100.00
66547;BME280;53400;50.364;14.874;2023-09-19T02:57:02;98046.78;;;15.27;100.00
66547;BME280;53400;50.364;14.874;2023-09-19T02:59:31;98054.47;;;15.57;100.00
66547;BME280;53400;50.364;14.874;2023-09-19T03:01:57;98055.81;;;15.79;100.00
66547;BME280;53400;50.364;14.874;2023-09-19T03:04:23;98053.91;;;15.98;100.00
66547;BME280;53400;50.364;14.874;2023-09-19T03:06:49;98055.50;;;15.99;100.00
66547;BME280;53400;50.364;14.874;2023-09-19T03:09:17;98050.84;;;16.05;100.00
66547;BME280;53400;50.364;14.874;2023-09-19T03:11:46;98061.84;;;16.09;100.00
66547;BME280;53400;50.364;14.874;2023-09-19T03:14:13;98059.22;;;16.22;100.00
66547;BME280;53400;50.364;14.874;2023-09-19T03:16:41;98053.50;;;16.24;100.00
66547;BME280;53400;50.364;14.874;2023-09-19T03:19:10;98047.97;;;16.15;100.00
66547;BME280;53400;50.364;14.874;2023-09-19T03:21:40;98051.13;;;15.85;100.00
66547;BME280;53400;50.364;14.874;2023-09-19T03:24:06;98048.88;;;15.92;100.00
66547;BME280;53400;50.364;14.874;2023-09-19T03:26:33;98043.84;;;15.85;100.00
66547;BME280;53400;50.364;14.874;2023-09-19T03:29:03;98045.19;;;15.64;100.00
66547;BME280;53400;50.364;14.874;2023-09-19T03:31:32;98042.41;;;15.74;100.00
66547;BME280;53400;50.364;14.874;2023-09-19T03:33:58;98046.88;;;15.41;100.00
66547;BME280;53400;50.364;14.874;2023-09-19T03:36:24;98039.66;;;15.55;100.00
66547;BME280;53400;50.364;14.874;2023-09-19T03:38:50;98048.25;;;15.19;100.00
66547;BME280;53400;50.364;14.874;2023-09-19T03:41:16;98050.66;;;14.97;100.00
66547;BME280;53400;50.364;14.874;2023-09-19T03:43:43;98054.50;;;15.33;100.00
66547;BME280;53400;50.364;14.874;2023-09-19T03:46:10;98052.84;;;15.37;100.00
66547;BME280;53400;50.364;14.874;2023-09-19T03:48:38;98054.28;;;15.73;100.00
66547;BME280;53400;50.364;14.874;2023-09-19T03:51:04;98053.59;;;15.62;100.00
66547;BME280;53400;50.364;14.874;2023-09-19T03:53:30;98057.06;;;15.68;100.00
66547;BME280;53400;50.364;14.874;2023-09-19T03:55:56;98059.88;;;15.57;100.00
66547;BME280;53400;50.364;14.874;2023-09-19T03:58:23;98054.22;;;15.78;100.00
66547;BME280;53400;50.364;14.874;2023-09-19T04:00:49;98063.84;;;15.84;100.00
66547;BME280;53400;50.364;14.874;2023-09-19T04:03:17;98064.63;;;15.85;100.00
66547;BME280;53400;50.364;14.874;2023-09-19T04:05:46;98062.25;;;15.83;100.00
66547;BME280;53400;50.364;14.874;2023-09-19T04:08:13;98067.84;;;16.05;100.00
66547;BME280;53400;50.364;14.874;2023-09-19T04:10:41;98062.16;;;16.07;100.00
66547;BME280;53400;50.364;14.874;2023-09-19T04:13:08;98062.38;;;16.11;100.00
66547;BME280;53400;50.364;14.874;2023-09-19T04:15:34;98070.53;;;16.05;100.00
66547;BME280;53400;50.364;14.874;2023-09-19T04:18:00;98071.94;;;15.84;100.00
66547;BME280;53400;50.364;14.874;2023-09-19T04:20:27;98076.97;;;15.72;100.00
66547;BME280;53400;50.364;14.874;2023-09-19T04:22:54;98084.50;;;15.75;100.00
66547;BME280;53400;50.364;14.874;2023-09-19T04:25:20;98091.88;;;15.64;100.00
66547;BME280;53400;50.364;14.874;2023-09-19T04:27:46;98090.84;;;15.41;100.00
66547;BME280;53400;50.364;14.874;2023-09-19T04:30:13;98092.91;;;15.49;100.00
66547;BME280;53400;50.364;14.874;2023-09-19T04:32:41;98097.81;;;15.66;100.00
66547;BME280;53400;50.364;14.874;2023-09-19T04:35:08;98096.47;;;15.69;100.00
66547;BME280;53400;50.364;14.874;2023-09-19T04:37:38;98107.25;;;15.69;100.00
66547;BME280;53400;50.364;14.874;2023-09-19T04:40:06;98102.31;;;15.52;100.00
66547;BME280;53400;50.364;14.874;2023-09-19T04:42:36;98101.69;;;15.36;100.00
66547;BME280;53400;50.364;14.874;2023-09-19T04:45:02;98111.34;;;15.42;100.00
66547;BME280;53400;50.364;14.874;2023-09-19T04:47:29;98112.03;;;15.29;100.00
66547;BME280;53400;50.364;14.874;2023-09-19T04:49:55;98118.75;;;15.55;100.00
66547;BME280;53400;50.364;14.874;2023-09-19T04:52:22;98116.69;;;15.66;100.00
66547;BME280;53400;50.364;14.874;2023-09-19T04:54:49;98114.78;;;15.72;100.00
66547;BME280;53400;50.364;14.874;2023-09-19T04:57:16;98128.59;;;15.65;100.00
66547;BME280;53400;50.364;14.874;2023-09-19T04:59:41;98138.84;;;15.68;100.00
66547;BME280;53400;50.364;14.874;2023-09-19T05:02:08;98142.88;;;15.71;100.00
66547;BME280;53400;50.364;14.874;2023-09-19T05:04:34;98139.81;;;15.77;100.00
66547;BME280;53400;50.364;14.874;2023-09-19T05:07:01;98149.72;;;15.82;100.00
66547;BME280;53400;50.364;14.874;2023-09-19T05:09:29;98146.38;;;15.71;100.00
66547;BME280;53400;50.364;14.874;2023-09-19T05:11:56;98144.25;;;15.68;100.00
66547;BME280;53400;50.364;14.874;2023-09-19T05:14:22;98150.44;;;15.21;100.00
66547;BME280;53400;50.364;14.874;2023-09-19T05:16:49;98152.06;;;15.22;100.00
66547;BME280;53400;50.364;14.874;2023-09-19T05:19:15;98157.03;;;15.33;100.00
66547;BME280;53400;50.364;14.874;2023-09-19T05:21:41;98154.06;;;15.59;100.00
66547;BME280;53400;50.364;14.874;2023-09-19T05:24:07;98153.66;;;15.71;100.00
66547;BME280;53400;50.364;14.874;2023-09-19T05:26:34;98146.00;;;15.97;100.00
66547;BME280;53400;50.364;14.874;2023-09-19T05:29:02;98150.25;;;15.84;100.00
66547;BME280;53400;50.364;14.874;2023-09-19T05:31:29;98146.53;;;15.80;100.00
66547;BME280;53400;50.364;14.874;2023-09-19T05:33:56;98154.47;;;15.90;100.00
66547;BME280;53400;50.364;14.874;2023-09-19T05:36:22;98161.41;;;15.96;100.00
66547;BME280;53400;50.364;14.874;2023-09-19T05:38:48;98162.00;;;15.93;100.00
66547;BME280;53400;50.364;14.874;2023-09-19T05:41:16;98155.81;;;15.93;100.00
66547;BME280;53400;50.364;14.874;2023-09-19T05:43:43;98146.22;;;15.81;100.00
66547;BME280;53400;50.364;14.874;2023-09-19T05:46:11;98147.53;;;15.84;100.00
66547;BME280;53400;50.364;14.874;2023-09-19T05:48:37;98156.81;;;15.78;100.00
66547;BME280;53400;50.364;14.874;2023-09-19T05:51:05;98146.66;;;15.70;100.00
66547;BME280;53400;50.364;14.874;2023-09-19T05:53:31;98145.56;;;15.71;100.00
66547;BME280;53400;50.364;14.874;2023-09-19T05:55:58;98150.09;;;15.75;100.00
66547;BME280;53400;50.364;14.874;2023-09-19T05:58:26;98156.94;;;15.68;100.00
66547;BME280;53400;50.364;14.874;2023-09-19T06:00:53;98161.00;;;15.65;100.00
66547;BME280;53400;50.364;14.874;2023-09-19T06:03:20;98167.75;;;15.68;100.00
66547;BME280;53400;50.364;14.874;2023-09-19T06:05:46;98166.06;;;15.72;100.00
66547;BME280;53400;50.364;14.874;2023-09-19T06:08:14;98162.88;;;15.89;100.00
66547;BME280;53400;50.364;14.874;2023-09-19T06:10:40;98162.94;;;15.83;100.00
66547;BME280;53400;50.364;14.874;2023-09-19T06:13:06;98160.19;;;15.89;100.00
66547;BME280;53400;50.364;14.874;2023-09-19T06:15:36;98173.22;;;15.81;100.00
66547;BME280;53400;50.364;14.874;2023-09-19T06:18:03;98163.22;;;15.82;100.00
66547;BME280;53400;50.364;14.874;2023-09-19T06:20:32;98175.44;;;15.79;100.00
66547;BME280;53400;50.364;14.874;2023-09-19T06:22:58;98179.19;;;15.78;100.00
66547;BME280;53400;50.364;14.874;2023-09-19T06:25:25;98177.25;;;16.03;100.00
66547;BME280;53400;50.364;14.874;2023-09-19T06:27:52;98180.38;;;15.91;100.00
66547;BME280;53400;50.364;14.874;2023-09-19T06:30:21;98177.63;;;15.96;100.00
66547;BME280;53400;50.364;14.874;2023-09-19T06:32:47;98184.72;;;16.11;100.00
66547;BME280;53400;50.364;14.874;2023-09-19T06:35:15;98202.81;;;16.11;100.00
66547;BME280;53400;50.364;14.874;2023-09-19T06:37:43;98205.69;;;16.19;100.00
66547;BME280;53400;50.364;14.874;2023-09-19T06:40:10;98212.91;;;16.24;100.00
66547;BME280;53400;50.364;14.874;2023-09-19T06:42:40;98211.66;;;16.35;100.00
66547;BME280;53400;50.364;14.874;2023-09-19T06:45:08;98212.69;;;16.39;100.00
66547;BME280;53400;50.364;14.874;2023-09-19T06:47:37;98219.84;;;16.49;100.00
66547;BME280;53400;50.364;14.874;2023-09-19T06:50:03;98226.34;;;16.29;100.00
66547;BME280;53400;50.364;14.874;2023-09-19T06:52:31;98230.88;;;16.34;100.00
66547;BME280;53400;50.364;14.874;2023-09-19T06:55:00;98242.03;;;16.46;100.00
66547;BME280;53400;50.364;14.874;2023-09-19T06:57:29;98243.16;;;16.45;100.00
66547;BME280;53400;50.364;14.874;2023-09-19T06:59:56;98238.97;;;16.34;100.00
66547;BME280;53400;50.364;14.874;2023-09-19T07:02:22;98243.16;;;16.45;100.00
66547;BME280;53400;50.364;14.874;2023-09-19T07:04:49;98236.34;;;16.47;100.00
66547;BME280;53400;50.364;14.874;2023-09-19T07:07:16;98234.25;;;16.44;100.00
66547;BME280;53400;50.364;14.874;2023-09-19T07:09:43;98247.69;;;16.49;100.00
66547;BME280;53400;50.364;14.874;2023-09-19T07:12:14;98262.75;;;16.56;100.00
66547;BME280;53400;50.364;14.874;2023-09-19T07:14:40;98263.22;;;16.58;100.00
66547;BME280;53400;50.364;14.874;2023-09-19T07:17:09;98270.03;;;16.74;100.00
66547;BME280;53400;50.364;14.874;2023-09-19T07:19:37;98274.56;;;16.79;100.00
66547;BME280;53400;50.364;14.874;2023-09-19T07:22:03;98272.22;;;16.91;100.00
66547;BME280;53400;50.364;14.874;2023-09-19T07:24:30;98272.16;;;16.96;100.00
66547;BME280;53400;50.364;14.874;2023-09-19T07:27:06;98268.09;;;17.12;100.00
66547;BME280;53400;50.364;14.874;2023-09-19T07:29:36;98272.56;;;17.03;100.00
66547;BME280;53400;50.364;14.874;2023-09-19T07:32:04;98280.75;;;17.17;100.00
66547;BME280;53400;50.364;14.874;2023-09-19T07:34:32;98272.09;;;17.15;100.00
66547;BME280;53400;50.364;14.874;2023-09-19T07:36:58;98276.25;;;17.26;100.00
66547;BME280;53400;50.364;14.874;2023-09-19T07:39:24;98289.00;;;17.39;100.00
66547;BME280;53400;50.364;14.874;2023-09-19T07:41:51;98280.81;;;17.45;100.00
66547;BME280;53400;50.364;14.874;2023-09-19T07:44:17;98281.88;;;17.43;100.00
66547;BME280;53400;50.364;14.874;2023-09-19T07:46:44;98285.63;;;17.48;100.00
66547;BME280;53400;50.364;14.874;2023-09-19T07:49:10;98303.19;;;17.50;100.00
66547;BME280;53400;50.364;14.874;2023-09-19T07:51:36;98303.19;;;17.64;100.00
66547;BME280;53400;50.364;14.874;2023-09-19T07:54:02;98301.59;;;17.63;100.00
66547;BME280;53400;50.364;14.874;2023-09-19T07:56:29;98308.44;;;17.74;100.00
66547;BME280;53400;50.364;14.874;2023-09-19T07:58:59;98308.66;;;17.78;100.00
66547;BME280;53400;50.364;14.874;2023-09-19T08:01:25;98307.88;;;17.91;100.00
66547;BME280;53400;50.364;14.874;2023-09-19T08:03:54;98313.09;;;18.15;100.00
66547;BME280;53400;50.364;14.874;2023-09-19T08:06:21;98317.97;;;18.41;100.00
66547;BME280;53400;50.364;14.874;2023-09-19T08:08:48;98318.75;;;18.55;100.00
66547;BME280;53400;50.364;14.874;2023-09-19T08:11:16;98322.56;;;18.82;100.00
66547;BME280;53400;50.364;14.874;2023-09-19T08:13:47;98321.13;;;18.84;100.00
66547;BME280;53400;50.364;14.874;2023-09-19T08:16:14;98315.41;;;18.86;100.00
66547;BME280;53400;50.364;14.874;2023-09-19T08:18:51;98317.06;;;18.95;100.00
66547;BME280;53400;50.364;14.874;2023-09-19T08:21:22;98318.00;;;18.91;100.00
66547;BME280;53400;50.364;14.874;2023-09-19T08:23:49;98324.03;;;18.88;100.00
66547;BME280;53400;50.364;14.874;2023-09-19T08:26:15;98331.41;;;18.73;100.00
66547;BME280;53400;50.364;14.874;2023-09-19T08:28:42;98328.84;;;18.91;100.00
66547;BME280;53400;50.364;14.874;2023-09-19T08:31:08;98334.53;;;19.03;100.00
66547;BME280;53400;50.364;14.874;2023-09-19T08:33:36;98334.59;;;18.62;100.00
66547;BME280;53400;50.364;14.874;2023-09-19T08:36:02;98335.34;;;18.53;100.00
66547;BME280;53400;50.364;14.874;2023-09-19T08:38:34;98324.88;;;18.47;100.00
66547;BME280;53400;50.364;14.874;2023-09-19T08:41:05;98330.72;;;18.54;100.00
66547;BME280;53400;50.364;14.874;2023-09-19T08:43:31;98319.88;;;18.54;100.00
66547;BME280;53400;50.364;14.874;2023-09-19T08:46:07;98325.13;;;18.50;100.00
66547;BME280;53400;50.364;14.874;2023-09-19T08:48:39;98335.44;;;18.48;100.00
66547;BME280;53400;50.364;14.874;2023-09-19T08:51:07;98334.75;;;18.43;100.00
66547;BME280;53400;50.364;14.874;2023-09-19T08:53:41;98333.84;;;18.33;100.00
66547;BME280;53400;50.364;14.874;2023-09-19T08:56:09;98332.94;;;18.52;100.00
66547;BME280;53400;50.364;14.874;2023-09-19T08:58:43;98336.94;;;18.54;100.00
66547;BME280;53400;50.364;14.874;2023-09-19T09:01:10;98340.63;;;18.72;100.00
66547;BME280;53400;50.364;14.874;2023-09-19T09:03:40;98345.47;;;18.75;100.00
66547;BME280;53400;50.364;14.874;2023-09-19T09:06:09;98348.19;;;18.75;98.57
66547;BME280;53400;50.364;14.874;2023-09-19T09:08:38;98343.75;;;18.79;98.90
66547;BME280;53400;50.364;14.874;2023-09-19T09:11:05;98351.00;;;18.84;99.42
66547;BME280;53400;50.364;14.874;2023-09-19T09:13:35;98351.88;;;18.79;100.00
66547;BME280;53400;50.364;14.874;2023-09-19T09:16:01;98346.34;;;18.85;99.87
66547;BME280;53400;50.364;14.874;2023-09-19T09:18:28;98339.13;;;18.80;99.63
66547;BME280;53400;50.364;14.874;2023-09-19T09:20:55;98346.16;;;18.81;100.00
66547;BME280;53400;50.364;14.874;2023-09-19T09:23:22;98340.06;;;18.75;99.99
66547;BME280;53400;50.364;14.874;2023-09-19T09:25:50;98353.13;;;18.96;99.78
66547;BME280;53400;50.364;14.874;2023-09-19T09:28:24;98348.63;;;19.05;97.97
66547;BME280;53400;50.364;14.874;2023-09-19T09:30:54;98350.47;;;19.18;96.11
66547;BME280;53400;50.364;14.874;2023-09-19T09:33:23;98358.97;;;19.48;96.24
66547;BME280;53400;50.364;14.874;2023-09-19T09:35:51;98352.13;;;19.73;94.75
66547;BME280;53400;50.364;14.874;2023-09-19T09:38:27;98350.81;;;20.02;95.91
66547;BME280;53400;50.364;14.874;2023-09-19T09:40:58;98350.34;;;20.08;93.93
66547;BME280;53400;50.364;14.874;2023-09-19T09:43:32;98353.00;;;20.31;89.67
66547;BME280;53400;50.364;14.874;2023-09-19T09:46:13;98341.75;;;20.55;88.78
66547;BME280;53400;50.364;14.874;2023-09-19T09:48:56;98346.38;;;20.63;90.15
66547;BME280;53400;50.364;14.874;2023-09-19T09:51:41;98345.16;;;20.95;91.41
66547;BME280;53400;50.364;14.874;2023-09-19T09:54:25;98348.69;;;21.13;87.30
66547;BME280;53400;50.364;14.874;2023-09-19T09:56:57;98347.25;;;21.24;87.23
66547;BME280;53400;50.364;14.874;2023-09-19T09:59:51;98347.69;;;20.83;83.08
66547;BME280;53400;50.364;14.874;2023-09-19T10:02:27;98356.53;;;21.06;81.22
66547;BME280;53400;50.364;14.874;2023-09-19T10:05:11;98351.25;;;21.18;87.34
66547;BME280;53400;50.364;14.874;2023-09-19T10:08:10;98357.31;;;21.06;81.58
66547;BME280;53400;50.364;14.874;2023-09-19T10:10:44;98360.06;;;21.15;82.24
66547;BME280;53400;50.364;14.874;2023-09-19T10:13:30;98356.34;;;20.85;85.68
66547;BME280;53400;50.364;14.874;2023-09-19T10:15:58;98353.97;;;21.01;78.89
66547;BME280;53400;50.364;14.874;2023-09-19T10:18:26;98363.38;;;20.69;79.99
66547;BME280;53400;50.364;14.874;2023-09-19T10:20:54;98359.06;;;20.76;82.31
66547;BME280;53400;50.364;14.874;2023-09-19T10:23:22;98357.91;;;20.69;81.64
66547;BME280;53400;50.364;14.874;2023-09-19T10:25:50;98358.31;;;20.45;82.90
66547;BME280;53400;50.364;14.874;2023-09-19T10:28:17;98366.00;;;20.43;83.96
66547;BME280;53400;50.364;14.874;2023-09-19T10:30:50;98364.31;;;20.55;82.60
66547;BME280;53400;50.364;14.874;2023-09-19T10:33:18;98360.34;;;20.70;81.65
66547;BME280;53400;50.364;14.874;2023-09-19T10:35:47;98357.78;;;20.82;83.49
66547;BME280;53400;50.364;14.874;2023-09-19T10:38:17;98356.06;;;21.21;82.07
66547;BME280;53400;50.364;14.874;2023-09-19T10:40:49;98346.59;;;21.36;80.46
66547;BME280;53400;50.364;14.874;2023-09-19T10:43:16;98350.59;;;20.95;80.19
66547;BME280;53400;50.364;14.874;2023-09-19T10:45:49;98349.78;;;20.95;80.78
66547;BME280;53400;50.364;14.874;2023-09-19T10:48:18;98351.88;;;20.89;81.59
66547;BME280;53400;50.364;14.874;2023-09-19T10:50:48;98353.09;;;20.57;83.65
66547;BME280;53400;50.364;14.874;2023-09-19T10:53:17;98353.31;;;20.29;83.10
66547;BME280;53400;50.364;14.874;2023-09-19T10:55:50;98352.06;;;20.44;83.71
66547;BME280;53400;50.364;14.874;2023-09-19T10:58:29;98355.38;;;20.24;84.74
66547;BME280;53400;50.364;14.874;2023-09-19T11:01:01;98348.66;;;20.21;84.18
66547;BME280;53400;50.364;14.874;2023-09-19T11:03:37;98345.66;;;20.31;82.99
66547;BME280;53400;50.364;14.874;2023-09-19T11:06:11;98350.16;;;20.45;83.09
66547;BME280;53400;50.364;14.874;2023-09-19T11:09:00;98351.19;;;20.57;82.79
66547;BME280;53400;50.364;14.874;2023-09-19T11:11:43;98350.28;;;20.97;82.45
66547;BME280;53400;50.364;14.874;2023-09-19T11:14:15;98344.66;;;21.11;82.08
66547;BME280;53400;50.364;14.874;2023-09-19T11:20:26;98352.66;;;21.50;79.23
66547;BME280;53400;50.364;14.874;2023-09-19T11:23:24;98349.41;;;21.74;78.47
66547;BME280;53400;50.364;14.874;2023-09-19T11:25:55;98347.66;;;21.70;77.51
66547;BME280;53400;50.364;14.874;2023-09-19T11:28:30;98345.06;;;21.82;76.81
66547;BME280;53400;50.364;14.874;2023-09-19T11:30:57;98333.84;;;21.75;69.51
66547;BME280;53400;50.364;14.874;2023-09-19T11:33:29;98341.28;;;21.48;75.24
66547;BME280;53400;50.364;14.874;2023-09-19T11:36:10;98343.03;;;21.27;74.52
66547;BME280;53400;50.364;14.874;2023-09-19T11:39:00;98337.31;;;21.37;72.13
66547;BME280;53400;50.364;14.874;2023-09-19T11:41:38;98331.44;;;21.82;68.58
66547;BME280;53400;50.364;14.874;2023-09-19T11:44:33;98327.84;;;21.99;65.43
66547;BME280;53400;50.364;14.874;2023-09-19T11:47:05;98320.88;;;22.19;64.64
66547;BME280;53400;50.364;14.874;2023-09-19T11:49:32;98327.47;;;22.48;64.66
66547;BME280;53400;50.364;14.874;2023-09-19T11:52:02;98325.06;;;22.67;66.72
66547;BME280;53400;50.364;14.874;2023-09-19T11:54:31;98331.13;;;22.73;64.51
66547;BME280;53400;50.364;14.874;2023-09-19T11:56:58;98337.59;;;22.68;66.61
66547;BME280;53400;50.364;14.874;2023-09-19T11:59:26;98322.31;;;22.25;65.54
66547;BME280;53400;50.364;14.874;2023-09-19T12:01:56;98331.25;;;22.34;64.55
66547;BME280;53400;50.364;14.874;2023-09-19T12:04:34;98330.28;;;22.81;68.14
66547;BME280;53400;50.364;14.874;2023-09-19T12:07:11;98325.63;;;22.81;64.66
66547;BME280;53400;50.364;14.874;2023-09-19T12:09:41;98330.16;;;22.77;62.26
66547;BME280;53400;50.364;14.874;2023-09-19T12:12:19;98324.41;;;22.70;61.07
66547;BME280;53400;50.364;14.874;2023-09-19T12:14:47;98328.34;;;22.60;62.34
66547;BME280;53400;50.364;14.874;2023-09-19T12:17:14;98328.72;;;22.50;61.13
66547;BME280;53400;50.364;14.874;2023-09-19T12:19:49;98331.69;;;22.36;62.65
66547;BME280;53400;50.364;14.874;2023-09-19T12:22:17;98328.81;;;22.33;63.65
66547;BME280;53400;50.364;14.874;2023-09-19T12:24:45;98336.44;;;22.48;62.30
66547;BME280;53400;50.364;14.874;2023-09-19T12:27:12;98331.00;;;22.69;62.12
66547;BME280;53400;50.364;14.874;2023-09-19T12:29:43;98329.66;;;22.54;60.05
66547;BME280;53400;50.364;14.874;2023-09-19T12:32:10;98331.84;;;22.40;58.90
66547;BME280;53400;50.364;14.874;2023-09-19T12:34:37;98327.31;;;22.74;63.96
66547;BME280;53400;50.364;14.874;2023-09-19T12:37:12;98322.22;;;22.84;62.50
66547;BME280;53400;50.364;14.874;2023-09-19T12:39:42;98321.06;;;22.43;61.46
66547;BME280;53400;50.364;14.874;2023-09-19T12:42:10;98326.81;;;22.12;63.41
66547;BME280;53400;50.364;14.874;2023-09-19T12:44:37;98330.47;;;22.25;62.69
66547;BME280;53400;50.364;14.874;2023-09-19T12:47:10;98321.78;;;22.32;61.28
66547;BME280;53400;50.364;14.874;2023-09-19T12:50:05;98316.81;;;22.34;61.64
66547;BME280;53400;50.364;14.874;2023-09-19T12:52:35;98328.41;;;22.22;60.49
66547;BME280;53400;50.364;14.874;2023-09-19T12:55:04;98321.34;;;22.21;60.94
66547;BME280;53400;50.364;14.874;2023-09-19T12:57:34;98320.59;;;22.41;61.60
66547;BME280;53400;50.364;14.874;2023-09-19T13:00:01;98319.56;;;22.25;58.43